sensor_id;sensor_type;location;lat;lon;timestamp;P1;durP1;ratioP1;P2;durP2;ratioP2
63218;SDS011;49320;52.512;13.448;2023-01-01T00:02:22;142.30;;;118.85;;
63218;SDS011;49320;52.512;13.448;2023-01-01T00:04:49;99.22;;;84.45;;
63218;SDS011;49320;52.512;13.448;2023-01-01T00:07:16;74.22;;;64.00;;
63218;SDS011;49320;52.512;13.448;2023-01-01T00:09:43;46.75;;;39.20;;
63218;SDS011;49320;52.512;13.448;2023-01-01T00:12:29;31.55;;;27.95;;
63218;SDS011;49320;52.512;13.448;2023-01-01T00:14:58;42.00;;;36.88;;
63218;SDS011;49320;52.512;13.448;2023-01-01T00:17:25;34.50;;;30.35;;
63218;SDS011;49320;52.512;13.448;2023-01-01T00:19:51;33.05;;;28.48;;
63218;SDS011;49320;52.512;13.448;2023-01-01T00:22:18;27.27;;;24.27;;
63218;SDS011;49320;52.512;13.448;2023-01-01T00:25:05;23.13;;;20.65;;
63218;SDS011;49320;52.512;13.448;2023-01-01T00:27:32;25.48;;;18.33;;
63218;SDS011;49320;52.512;13.448;2023-01-01T00:29:59;163.90;;;111.63;;
63218;SDS011;49320;52.512;13.448;2023-01-01T00:32:26;62.65;;;45.50;;
63218;SDS011;49320;52.512;13.448;2023-01-01T00:34:53;37.08;;;28.15;;
63218;SDS011;49320;52.512;13.448;2023-01-01T00:37:20;20.77;;;18.58;;
63218;SDS011;49320;52.512;13.448;2023-01-01T00:39:46;18.02;;;13.95;;
63218;SDS011;49320;52.512;13.448;2023-01-01T00:42:13;14.30;;;10.30;;
63218;SDS011;49320;52.512;13.448;2023-01-01T00:44:40;10.50;;;7.55;;
63218;SDS011;49320;52.512;13.448;2023-01-01T00:47:07;8.13;;;6.53;;
63218;SDS011;49320;52.512;13.448;2023-01-01T00:49:34;8.65;;;6.05;;
63218;SDS011;49320;52.512;13.448;2023-01-01T00:52:01;10.27;;;8.63;;
63218;SDS011;49320;52.512;13.448;2023-01-01T00:54:27;10.18;;;7.28;;
63218;SDS011;49320;52.512;13.448;2023-01-01T00:56:54;7.65;;;6.07;;
63218;SDS011;49320;52.512;13.448;2023-01-01T00:59:22;10.48;;;5.40;;
63218;SDS011;49320;52.512;13.448;2023-01-01T01:01:54;6.07;;;4.88;;
63218;SDS011;49320;52.512;13.448;2023-01-01T01:04:21;6.55;;;4.72;;
63218;SDS011;49320;52.512;13.448;2023-01-01T01:06:48;8.55;;;5.88;;
63218;SDS011;49320;52.512;13.448;2023-01-01T01:09:15;8.85;;;6.32;;
63218;SDS011;49320;52.512;13.448;2023-01-01T01:11:42;10.80;;;6.57;;
63218;SDS011;49320;52.512;13.448;2023-01-01T01:14:08;11.73;;;7.10;;
63218;SDS011;49320;52.512;13.448;2023-01-01T01:16:35;12.63;;;7.47;;
63218;SDS011;49320;52.512;13.448;2023-01-01T01:19:02;8.43;;;5.72;;
63218;SDS011;49320;52.512;13.448;2023-01-01T01:21:32;7.05;;;5.03;;
63218;SDS011;49320;52.512;13.448;2023-01-01T01:24:00;8.30;;;5.00;;
63218;SDS011;49320;52.512;13.448;2023-01-01T01:26:30;9.45;;;4.68;;
63218;SDS011;49320;52.512;13.448;2023-01-01T01:28:58;11.02;;;6.70;;
63218;SDS011;49320;52.512;13.448;2023-01-01T01:31:26;9.75;;;5.82;;
63218;SDS011;49320;52.512;13.448;2023-01-01T01:33:56;7.50;;;4.95;;
63218;SDS011;49320;52.512;13.448;2023-01-01T01:36:23;6.20;;;4.93;;
63218;SDS011;49320;52.512;13.448;2023-01-01T01:38:52;9.02;;;6.78;;
63218;SDS011;49320;52.512;13.448;2023-01-01T01:41:21;9.05;;;5.88;;
63218;SDS011;49320;52.512;13.448;2023-01-01T01:44:01;6.88;;;5.30;;
63218;SDS011;49320;52.512;13.448;2023-01-01T01:46:49;5.65;;;3.80;;
63218;SDS011;49320;52.512;13.448;2023-01-01T01:49:19;5.93;;;3.75;;
63218;SDS011;49320;52.512;13.448;2023-01-01T01:51:56;9.57;;;3.88;;
63218;SDS011;49320;52.512;13.448;2023-01-01T01:54:27;6.72;;;3.65;;
63218;SDS011;49320;52.512;13.448;2023-01-01T01:56:58;4.93;;;3.22;;
63218;SDS011;49320;52.512;13.448;2023-01-01T01:59:30;5.50;;;3.00;;
63218;SDS011;49320;52.512;13.448;2023-01-01T02:02:02;5.97;;;3.47;;
63218;SDS011;49320;52.512;13.448;2023-01-01T02:04:41;4.68;;;3.00;;
63218;SDS011;49320;52.512;13.448;2023-01-01T02:07:08;6.28;;;3.00;;
63218;SDS011;49320;52.512;13.448;2023-01-01T02:09:35;4.63;;;2.97;;
63218;SDS011;49320;52.512;13.448;2023-01-01T02:12:02;6.80;;;3.40;;
63218;SDS011;49320;52.512;13.448;2023-01-01T02:14:29;4.25;;;2.78;;
63218;SDS011;49320;52.512;13.448;2023-01-01T02:17:08;6.07;;;3.28;;
63218;SDS011;49320;52.512;13.448;2023-01-01T02:19:57;3.92;;;3.17;;
63218;SDS011;49320;52.512;13.448;2023-01-01T02:22:52;6.63;;;3.95;;
63218;SDS011;49320;52.512;13.448;2023-01-01T02:29:10;3.85;;;2.80;;
63218;SDS011;49320;52.512;13.448;2023-01-01T02:34:40;4.20;;;3.00;;
63218;SDS011;49320;52.512;13.448;2023-01-01T02:37:46;5.22;;;3.20;;
63218;SDS011;49320;52.512;13.448;2023-01-01T02:40:16;6.55;;;3.67;;
63218;SDS011;49320;52.512;13.448;2023-01-01T02:42:48;5.90;;;3.85;;
63218;SDS011;49320;52.512;13.448;2023-01-01T02:45:18;7.53;;;3.58;;
63218;SDS011;49320;52.512;13.448;2023-01-01T02:47:45;4.40;;;3.58;;
63218;SDS011;49320;52.512;13.448;2023-01-01T02:50:30;5.40;;;3.42;;
63218;SDS011;49320;52.512;13.448;2023-01-01T02:53:02;6.85;;;3.80;;
63218;SDS011;49320;52.512;13.448;2023-01-01T02:56:03;4.97;;;3.45;;
63218;SDS011;49320;52.512;13.448;2023-01-01T02:58:46;8.30;;;4.05;;
63218;SDS011;49320;52.512;13.448;2023-01-01T03:01:48;6.30;;;3.40;;
63218;SDS011;49320;52.512;13.448;2023-01-01T03:04:35;6.13;;;3.83;;
63218;SDS011;49320;52.512;13.448;2023-01-01T03:07:16;5.32;;;3.13;;
63218;SDS011;49320;52.512;13.448;2023-01-01T03:12:59;39.22;;;23.33;;
63218;SDS011;49320;52.512;13.448;2023-01-01T03:16:08;14.38;;;11.80;;
63218;SDS011;49320;52.512;13.448;2023-01-01T03:18:56;13.82;;;7.95;;
63218;SDS011;49320;52.512;13.448;2023-01-01T03:21:40;7.97;;;5.25;;
63218;SDS011;49320;52.512;13.448;2023-01-01T03:24:18;5.47;;;3.70;;
63218;SDS011;49320;52.512;13.448;2023-01-01T03:26:56;5.47;;;3.83;;
63218;SDS011;49320;52.512;13.448;2023-01-01T03:29:29;6.78;;;3.45;;
63218;SDS011;49320;52.512;13.448;2023-01-01T03:32:01;7.00;;;3.58;;
63218;SDS011;49320;52.512;13.448;2023-01-01T03:34:36;8.80;;;3.97;;
63218;SDS011;49320;52.512;13.448;2023-01-01T03:37:09;6.43;;;4.20;;
63218;SDS011;49320;52.512;13.448;2023-01-01T03:39:46;5.53;;;3.65;;
63218;SDS011;49320;52.512;13.448;2023-01-01T03:42:36;32.55;;;23.48;;
63218;SDS011;49320;52.512;13.448;2023-01-01T03:45:10;29.77;;;21.60;;
63218;SDS011;49320;52.512;13.448;2023-01-01T03:47:44;34.38;;;26.30;;
63218;SDS011;49320;52.512;13.448;2023-01-01T03:50:12;17.00;;;14.02;;
63218;SDS011;49320;52.512;13.448;2023-01-01T03:55:48;9.48;;;7.28;;
63218;SDS011;49320;52.512;13.448;2023-01-01T03:59:00;6.72;;;5.00;;
63218;SDS011;49320;52.512;13.448;2023-01-01T04:01:39;7.55;;;4.28;;
63218;SDS011;49320;52.512;13.448;2023-01-01T04:04:13;4.63;;;3.28;;
63218;SDS011;49320;52.512;13.448;2023-01-01T04:06:42;5.72;;;3.33;;
63218;SDS011;49320;52.512;13.448;2023-01-01T04:09:12;6.40;;;3.42;;
63218;SDS011;49320;52.512;13.448;2023-01-01T04:11:44;8.10;;;4.53;;
63218;SDS011;49320;52.512;13.448;2023-01-01T04:14:36;19.20;;;12.43;;
63218;SDS011;49320;52.512;13.448;2023-01-01T04:17:06;11.73;;;8.43;;
63218;SDS011;49320;52.512;13.448;2023-01-01T04:19:36;11.45;;;7.22;;
63218;SDS011;49320;52.512;13.448;2023-01-01T04:22:03;8.95;;;5.38;;
63218;SDS011;49320;52.512;13.448;2023-01-01T04:24:30;6.15;;;4.72;;
63218;SDS011;49320;52.512;13.448;2023-01-01T04:26:58;6.22;;;5.03;;
63218;SDS011;49320;52.512;13.448;2023-01-01T04:29:25;6.50;;;4.03;;
63218;SDS011;49320;52.512;13.448;2023-01-01T04:31:52;7.57;;;4.05;;
63218;SDS011;49320;52.512;13.448;2023-01-01T04:34:18;6.28;;;4.38;;
63218;SDS011;49320;52.512;13.448;2023-01-01T04:36:45;7.78;;;4.40;;
63218;SDS011;49320;52.512;13.448;2023-01-01T04:39:12;6.57;;;4.03;;
63218;SDS011;49320;52.512;13.448;2023-01-01T04:41:39;7.63;;;5.43;;
63218;SDS011;49320;52.512;13.448;2023-01-01T04:44:06;8.50;;;5.32;;
63218;SDS011;49320;52.512;13.448;2023-01-01T04:46:32;7.78;;;4.88;;
63218;SDS011;49320;52.512;13.448;2023-01-01T04:48:59;12.30;;;6.82;;
63218;SDS011;49320;52.512;13.448;2023-01-01T04:51:26;9.73;;;5.82;;
63218;SDS011;49320;52.512;13.448;2023-01-01T04:53:53;13.02;;;7.57;;
63218;SDS011;49320;52.512;13.448;2023-01-01T04:56:20;13.23;;;7.32;;
63218;SDS011;49320;52.512;13.448;2023-01-01T04:58:48;7.60;;;4.90;;
63218;SDS011;49320;52.512;13.448;2023-01-01T05:01:25;8.25;;;4.70;;
63218;SDS011;49320;52.512;13.448;2023-01-01T05:03:54;6.82;;;4.03;;
63218;SDS011;49320;52.512;13.448;2023-01-01T05:06:23;7.35;;;3.47;;
63218;SDS011;49320;52.512;13.448;2023-01-01T05:08:52;5.97;;;3.17;;
63218;SDS011;49320;52.512;13.448;2023-01-01T05:11:21;5.65;;;3.28;;
63218;SDS011;49320;52.512;13.448;2023-01-01T05:13:50;5.85;;;3.17;;
63218;SDS011;49320;52.512;13.448;2023-01-01T05:16:21;5.18;;;3.08;;
63218;SDS011;49320;52.512;13.448;2023-01-01T05:18:54;5.32;;;3.25;;
63218;SDS011;49320;52.512;13.448;2023-01-01T05:21:23;7.55;;;3.53;;
63218;SDS011;49320;52.512;13.448;2023-01-01T05:23:54;5.43;;;2.63;;
63218;SDS011;49320;52.512;13.448;2023-01-01T05:26:25;4.85;;;2.63;;
63218;SDS011;49320;52.512;13.448;2023-01-01T05:28:55;4.18;;;2.70;;
63218;SDS011;49320;52.512;13.448;2023-01-01T05:31:23;5.30;;;2.80;;
63218;SDS011;49320;52.512;13.448;2023-01-01T05:33:54;5.47;;;2.47;;
63218;SDS011;49320;52.512;13.448;2023-01-01T05:36:24;5.32;;;2.85;;
63218;SDS011;49320;52.512;13.448;2023-01-01T05:39:00;4.35;;;2.33;;
63218;SDS011;49320;52.512;13.448;2023-01-01T05:41:27;3.97;;;2.28;;
63218;SDS011;49320;52.512;13.448;2023-01-01T05:43:56;4.70;;;2.60;;
63218;SDS011;49320;52.512;13.448;2023-01-01T05:46:23;7.78;;;2.53;;
63218;SDS011;49320;52.512;13.448;2023-01-01T05:48:51;3.67;;;2.40;;
63218;SDS011;49320;52.512;13.448;2023-01-01T05:51:20;6.13;;;2.42;;
63218;SDS011;49320;52.512;13.448;2023-01-01T05:53:50;3.35;;;2.15;;
63218;SDS011;49320;52.512;13.448;2023-01-01T05:56:19;3.10;;;2.10;;
63218;SDS011;49320;52.512;13.448;2023-01-01T05:58:46;6.55;;;2.42;;
63218;SDS011;49320;52.512;13.448;2023-01-01T06:01:21;6.38;;;2.20;;
63218;SDS011;49320;52.512;13.448;2023-01-01T06:03:51;5.22;;;2.67;;
63218;SDS011;49320;52.512;13.448;2023-01-01T06:06:22;4.05;;;1.98;;
63218;SDS011;49320;52.512;13.448;2023-01-01T06:08:57;4.53;;;2.25;;
63218;SDS011;49320;52.512;13.448;2023-01-01T06:11:27;4.10;;;2.40;;
63218;SDS011;49320;52.512;13.448;2023-01-01T06:13:57;4.80;;;2.20;;
63218;SDS011;49320;52.512;13.448;2023-01-01T06:16:26;2.63;;;1.70;;
63218;SDS011;49320;52.512;13.448;2023-01-01T06:18:55;6.20;;;1.90;;
63218;SDS011;49320;52.512;13.448;2023-01-01T06:21:23;3.83;;;1.70;;
63218;SDS011;49320;52.512;13.448;2023-01-01T06:23:51;2.95;;;1.83;;
63218;SDS011;49320;52.512;13.448;2023-01-01T06:26:25;4.80;;;1.95;;
63218;SDS011;49320;52.512;13.448;2023-01-01T06:28:56;4.22;;;2.13;;
63218;SDS011;49320;52.512;13.448;2023-01-01T06:31:24;5.00;;;2.20;;
63218;SDS011;49320;52.512;13.448;2023-01-01T06:33:53;5.30;;;2.47;;
63218;SDS011;49320;52.512;13.448;2023-01-01T06:36:21;6.25;;;2.80;;
63218;SDS011;49320;52.512;13.448;2023-01-01T06:38:51;6.80;;;2.80;;
63218;SDS011;49320;52.512;13.448;2023-01-01T06:41:22;4.72;;;2.50;;
63218;SDS011;49320;52.512;13.448;2023-01-01T06:43:51;5.03;;;2.38;;
63218;SDS011;49320;52.512;13.448;2023-01-01T06:46:22;5.80;;;2.33;;
63218;SDS011;49320;52.512;13.448;2023-01-01T06:48:58;5.72;;;1.98;;
63218;SDS011;49320;52.512;13.448;2023-01-01T06:51:30;3.35;;;2.08;;
63218;SDS011;49320;52.512;13.448;2023-01-01T06:54:02;3.63;;;2.08;;
63218;SDS011;49320;52.512;13.448;2023-01-01T06:56:30;4.65;;;2.15;;
63218;SDS011;49320;52.512;13.448;2023-01-01T06:58:58;4.65;;;2.22;;
63218;SDS011;49320;52.512;13.448;2023-01-01T07:01:27;4.50;;;2.25;;
63218;SDS011;49320;52.512;13.448;2023-01-01T07:03:58;4.70;;;2.47;;
63218;SDS011;49320;52.512;13.448;2023-01-01T07:06:28;3.30;;;2.00;;
63218;SDS011;49320;52.512;13.448;2023-01-01T07:08:57;4.85;;;2.35;;
63218;SDS011;49320;52.512;13.448;2023-01-01T07:11:24;7.95;;;2.35;;
63218;SDS011;49320;52.512;13.448;2023-01-01T07:13:52;3.80;;;2.15;;
63218;SDS011;49320;52.512;13.448;2023-01-01T07:16:20;5.18;;;2.35;;
63218;SDS011;49320;52.512;13.448;2023-01-01T07:18:47;3.40;;;2.05;;
63218;SDS011;49320;52.512;13.448;2023-01-01T07:21:32;3.22;;;2.28;;
63218;SDS011;49320;52.512;13.448;2023-01-01T07:24:07;5.32;;;2.15;;
63218;SDS011;49320;52.512;13.448;2023-01-01T07:26:37;4.20;;;2.40;;
63218;SDS011;49320;52.512;13.448;2023-01-01T07:29:05;5.22;;;2.65;;
63218;SDS011;49320;52.512;13.448;2023-01-01T07:31:37;5.10;;;2.65;;
63218;SDS011;49320;52.512;13.448;2023-01-01T07:34:06;6.03;;;2.40;;
63218;SDS011;49320;52.512;13.448;2023-01-01T07:36:38;4.72;;;2.72;;
63218;SDS011;49320;52.512;13.448;2023-01-01T07:39:04;3.00;;;2.47;;
63218;SDS011;49320;52.512;13.448;2023-01-01T07:41:31;3.97;;;2.40;;
63218;SDS011;49320;52.512;13.448;2023-01-01T07:43:58;3.85;;;2.85;;
63218;SDS011;49320;52.512;13.448;2023-01-01T07:46:25;4.80;;;2.95;;
63218;SDS011;49320;52.512;13.448;2023-01-01T07:48:52;6.18;;;3.22;;
63218;SDS011;49320;52.512;13.448;2023-01-01T07:51:19;5.00;;;2.95;;
63218;SDS011;49320;52.512;13.448;2023-01-01T07:53:46;5.53;;;2.88;;
63218;SDS011;49320;52.512;13.448;2023-01-01T07:56:12;4.25;;;2.72;;
63218;SDS011;49320;52.512;13.448;2023-01-01T07:58:40;4.22;;;2.85;;
63218;SDS011;49320;52.512;13.448;2023-01-01T08:01:10;4.85;;;3.00;;
63218;SDS011;49320;52.512;13.448;2023-01-01T08:03:39;4.82;;;2.92;;
63218;SDS011;49320;52.512;13.448;2023-01-01T08:06:07;4.88;;;2.63;;
63218;SDS011;49320;52.512;13.448;2023-01-01T08:08:38;4.07;;;2.92;;
63218;SDS011;49320;52.512;13.448;2023-01-01T08:11:06;3.60;;;2.50;;
63218;SDS011;49320;52.512;13.448;2023-01-01T08:13:33;7.38;;;2.67;;
63218;SDS011;49320;52.512;13.448;2023-01-01T08:16:00;4.47;;;3.00;;
63218;SDS011;49320;52.512;13.448;2023-01-01T08:18:27;3.72;;;2.72;;
63218;SDS011;49320;52.512;13.448;2023-01-01T08:20:54;6.55;;;2.88;;
63218;SDS011;49320;52.512;13.448;2023-01-01T08:23:22;4.65;;;2.65;;
63218;SDS011;49320;52.512;13.448;2023-01-01T08:25:49;4.85;;;2.75;;
63218;SDS011;49320;52.512;13.448;2023-01-01T08:28:16;4.65;;;2.75;;
63218;SDS011;49320;52.512;13.448;2023-01-01T08:30:43;3.90;;;3.03;;
63218;SDS011;49320;52.512;13.448;2023-01-01T08:33:09;4.55;;;2.97;;
63218;SDS011;49320;52.512;13.448;2023-01-01T08:35:36;5.50;;;3.10;;
63218;SDS011;49320;52.512;13.448;2023-01-01T08:38:09;4.95;;;2.80;;
63218;SDS011;49320;52.512;13.448;2023-01-01T08:40:37;4.38;;;2.85;;
63218;SDS011;49320;52.512;13.448;2023-01-01T08:43:04;5.00;;;2.60;;
63218;SDS011;49320;52.512;13.448;2023-01-01T08:45:31;3.92;;;2.72;;
63218;SDS011;49320;52.512;13.448;2023-01-01T08:47:58;5.05;;;3.35;;
63218;SDS011;49320;52.512;13.448;2023-01-01T08:50:25;4.63;;;3.08;;
63218;SDS011;49320;52.512;13.448;2023-01-01T08:52:52;4.63;;;3.05;;
63218;SDS011;49320;52.512;13.448;2023-01-01T08:55:19;5.72;;;3.05;;
63218;SDS011;49320;52.512;13.448;2023-01-01T08:57:45;7.90;;;2.92;;
63218;SDS011;49320;52.512;13.448;2023-01-01T09:00:12;6.05;;;3.20;;
63218;SDS011;49320;52.512;13.448;2023-01-01T09:02:39;3.97;;;3.05;;
63218;SDS011;49320;52.512;13.448;2023-01-01T09:05:06;5.03;;;2.90;;
63218;SDS011;49320;52.512;13.448;2023-01-01T09:07:34;5.82;;;3.25;;
63218;SDS011;49320;52.512;13.448;2023-01-01T09:10:01;3.70;;;2.90;;
63218;SDS011;49320;52.512;13.448;2023-01-01T09:12:28;4.65;;;3.17;;
63218;SDS011;49320;52.512;13.448;2023-01-01T09:14:56;3.40;;;2.55;;
63218;SDS011;49320;52.512;13.448;2023-01-01T09:17:22;5.68;;;3.22;;
63218;SDS011;49320;52.512;13.448;2023-01-01T09:19:49;3.70;;;2.78;;
63218;SDS011;49320;52.512;13.448;2023-01-01T09:22:16;3.25;;;2.42;;
63218;SDS011;49320;52.512;13.448;2023-01-01T09:24:44;4.28;;;2.58;;
63218;SDS011;49320;52.512;13.448;2023-01-01T09:27:10;4.35;;;3.17;;
63218;SDS011;49320;52.512;13.448;2023-01-01T09:29:37;6.15;;;2.90;;
63218;SDS011;49320;52.512;13.448;2023-01-01T09:32:04;3.67;;;2.60;;
63218;SDS011;49320;52.512;13.448;2023-01-01T09:34:30;4.70;;;2.63;;
63218;SDS011;49320;52.512;13.448;2023-01-01T09:36:57;4.43;;;2.80;;
63218;SDS011;49320;52.512;13.448;2023-01-01T09:39:24;5.70;;;2.88;;
63218;SDS011;49320;52.512;13.448;2023-01-01T09:42:01;4.50;;;2.60;;
63218;SDS011;49320;52.512;13.448;2023-01-01T09:47:40;3.95;;;2.72;;
63218;SDS011;49320;52.512;13.448;2023-01-01T09:50:13;5.00;;;2.60;;
63218;SDS011;49320;52.512;13.448;2023-01-01T09:52:54;4.10;;;2.53;;
63218;SDS011;49320;52.512;13.448;2023-01-01T09:55:26;3.55;;;2.08;;
63218;SDS011;49320;52.512;13.448;2023-01-01T09:58:09;4.63;;;2.35;;
63218;SDS011;49320;52.512;13.448;2023-01-01T10:00:42;4.97;;;2.55;;
63218;SDS011;49320;52.512;13.448;2023-01-01T10:06:26;4.90;;;2.55;;
63218;SDS011;49320;52.512;13.448;2023-01-01T10:11:58;4.95;;;2.22;;
63218;SDS011;49320;52.512;13.448;2023-01-01T10:14:37;4.33;;;2.40;;
63218;SDS011;49320;52.512;13.448;2023-01-01T10:17:20;3.25;;;2.35;;
63218;SDS011;49320;52.512;13.448;2023-01-01T10:20:01;4.45;;;2.25;;
63218;SDS011;49320;52.512;13.448;2023-01-01T10:22:39;3.17;;;2.30;;
63218;SDS011;49320;52.512;13.448;2023-01-01T10:25:16;4.05;;;2.30;;
63218;SDS011;49320;52.512;13.448;2023-01-01T10:27:50;3.75;;;2.13;;
63218;SDS011;49320;52.512;13.448;2023-01-01T10:30:27;3.53;;;2.28;;
63218;SDS011;49320;52.512;13.448;2023-01-01T10:32:56;4.55;;;2.47;;
63218;SDS011;49320;52.512;13.448;2023-01-01T10:35:41;4.60;;;2.10;;
63218;SDS011;49320;52.512;13.448;2023-01-01T10:38:21;3.78;;;2.38;;
63218;SDS011;49320;52.512;13.448;2023-01-01T10:40:51;4.50;;;2.50;;
63218;SDS011;49320;52.512;13.448;2023-01-01T10:43:24;3.72;;;2.55;;
63218;SDS011;49320;52.512;13.448;2023-01-01T10:45:52;5.93;;;2.30;;
63218;SDS011;49320;52.512;13.448;2023-01-01T10:48:21;3.63;;;2.17;;
63218;SDS011;49320;52.512;13.448;2023-01-01T10:50:54;3.63;;;2.03;;
63218;SDS011;49320;52.512;13.448;2023-01-01T10:53:31;4.68;;;2.00;;
63218;SDS011;49320;52.512;13.448;2023-01-01T10:56:07;5.60;;;1.90;;
63218;SDS011;49320;52.512;13.448;2023-01-01T11:04:16;4.28;;;2.35;;
63218;SDS011;49320;52.512;13.448;2023-01-01T11:06:46;3.53;;;2.00;;
63218;SDS011;49320;52.512;13.448;2023-01-01T11:09:20;3.90;;;2.40;;
63218;SDS011;49320;52.512;13.448;2023-01-01T11:11:58;4.30;;;1.92;;
63218;SDS011;49320;52.512;13.448;2023-01-01T11:14:50;3.72;;;1.83;;
63218;SDS011;49320;52.512;13.448;2023-01-01T11:17:23;3.20;;;1.73;;
63218;SDS011;49320;52.512;13.448;2023-01-01T11:19:54;4.82;;;1.90;;
63218;SDS011;49320;52.512;13.448;2023-01-01T11:28:11;3.20;;;1.73;;
63218;SDS011;49320;52.512;13.448;2023-01-01T11:30:48;2.83;;;1.90;;
63218;SDS011;49320;52.512;13.448;2023-01-01T11:33:28;3.13;;;1.80;;
63218;SDS011;49320;52.512;13.448;2023-01-01T11:36:00;3.15;;;2.03;;
63218;SDS011;49320;52.512;13.448;2023-01-01T11:38:28;2.95;;;1.75;;
63218;SDS011;49320;52.512;13.448;2023-01-01T11:41:00;2.78;;;1.90;;
63218;SDS011;49320;52.512;13.448;2023-01-01T11:43:34;5.10;;;1.75;;
63218;SDS011;49320;52.512;13.448;2023-01-01T11:46:09;4.18;;;2.13;;
63218;SDS011;49320;52.512;13.448;2023-01-01T11:48:47;2.95;;;2.03;;
63218;SDS011;49320;52.512;13.448;2023-01-01T11:51:27;3.08;;;1.60;;
63218;SDS011;49320;52.512;13.448;2023-01-01T11:54:08;3.43;;;2.10;;
63218;SDS011;49320;52.512;13.448;2023-01-01T11:56:50;3.38;;;2.30;;
63218;SDS011;49320;52.512;13.448;2023-01-01T11:59:27;3.72;;;1.90;;
63218;SDS011;49320;52.512;13.448;2023-01-01T12:02:08;3.92;;;2.30;;
63218;SDS011;49320;52.512;13.448;2023-01-01T12:04:44;4.75;;;2.13;;
63218;SDS011;49320;52.512;13.448;2023-01-01T12:07:21;3.67;;;2.20;;
63218;SDS011;49320;52.512;13.448;2023-01-01T12:09:57;4.90;;;2.10;;
63218;SDS011;49320;52.512;13.448;2023-01-01T12:12:33;2.80;;;2.00;;
63218;SDS011;49320;52.512;13.448;2023-01-01T12:15:16;5.30;;;2.30;;
63218;SDS011;49320;52.512;13.448;2023-01-01T12:20:55;3.30;;;2.35;;
63218;SDS011;49320;52.512;13.448;2023-01-01T12:23:41;2.50;;;2.20;;
63218;SDS011;49320;52.512;13.448;2023-01-01T12:26:11;9.15;;;1.98;;
63218;SDS011;49320;52.512;13.448;2023-01-01T12:28:53;3.75;;;2.17;;
63218;SDS011;49320;52.512;13.448;2023-01-01T12:32:03;4.80;;;1.98;;
63218;SDS011;49320;52.512;13.448;2023-01-01T12:35:00;3.55;;;1.50;;
63218;SDS011;49320;52.512;13.448;2023-01-01T12:38:07;3.85;;;1.85;;
63218;SDS011;49320;52.512;13.448;2023-01-01T12:44:19;4.13;;;1.70;;
63218;SDS011;49320;52.512;13.448;2023-01-01T12:48:11;3.80;;;1.83;;
63218;SDS011;49320;52.512;13.448;2023-01-01T12:53:35;5.38;;;2.22;;
63218;SDS011;49320;52.512;13.448;2023-01-01T12:56:58;3.75;;;1.90;;
63218;SDS011;49320;52.512;13.448;2023-01-01T12:59:28;3.30;;;1.77;;
63218;SDS011;49320;52.512;13.448;2023-01-01T13:02:01;4.18;;;1.95;;
63218;SDS011;49320;52.512;13.448;2023-01-01T13:04:39;4.15;;;2.15;;
63218;SDS011;49320;52.512;13.448;2023-01-01T13:07:10;3.38;;;2.05;;
63218;SDS011;49320;52.512;13.448;2023-01-01T13:09:39;5.47;;;2.10;;
63218;SDS011;49320;52.512;13.448;2023-01-01T13:12:11;2.90;;;1.85;;
63218;SDS011;49320;52.512;13.448;2023-01-01T13:14:45;3.33;;;1.80;;
63218;SDS011;49320;52.512;13.448;2023-01-01T13:17:27;2.67;;;1.75;;
63218;SDS011;49320;52.512;13.448;2023-01-01T13:22:38;2.92;;;1.60;;
63218;SDS011;49320;52.512;13.448;2023-01-01T13:33:20;4.70;;;2.03;;
63218;SDS011;49320;52.512;13.448;2023-01-01T13:38:51;4.00;;;1.80;;
63218;SDS011;49320;52.512;13.448;2023-01-01T13:49:16;4.55;;;2.13;;
63218;SDS011;49320;52.512;13.448;2023-01-01T13:55:34;4.82;;;1.85;;
63218;SDS011;49320;52.512;13.448;2023-01-01T13:58:39;3.92;;;2.00;;
63218;SDS011;49320;52.512;13.448;2023-01-01T14:01:41;3.65;;;2.22;;
63218;SDS011;49320;52.512;13.448;2023-01-01T14:07:20;2.92;;;2.22;;
63218;SDS011;49320;52.512;13.448;2023-01-01T14:10:22;3.83;;;2.45;;
63218;SDS011;49320;52.512;13.448;2023-01-01T14:15:35;3.60;;;2.67;;
63218;SDS011;49320;52.512;13.448;2023-01-01T14:18:11;4.85;;;2.20;;
63218;SDS011;49320;52.512;13.448;2023-01-01T14:20:42;3.47;;;2.22;;
63218;SDS011;49320;52.512;13.448;2023-01-01T14:23:15;2.88;;;2.08;;
63218;SDS011;49320;52.512;13.448;2023-01-01T14:25:52;3.80;;;2.20;;
63218;SDS011;49320;52.512;13.448;2023-01-01T14:28:26;4.97;;;2.38;;
63218;SDS011;49320;52.512;13.448;2023-01-01T14:30:57;5.20;;;2.75;;
63218;SDS011;49320;52.512;13.448;2023-01-01T14:33:36;4.10;;;2.50;;
63218;SDS011;49320;52.512;13.448;2023-01-01T14:36:05;4.88;;;2.53;;
63218;SDS011;49320;52.512;13.448;2023-01-01T14:38:42;4.93;;;2.60;;
63218;SDS011;49320;52.512;13.448;2023-01-01T14:41:26;3.53;;;2.20;;
63218;SDS011;49320;52.512;13.448;2023-01-01T14:44:09;3.17;;;2.15;;
63218;SDS011;49320;52.512;13.448;2023-01-01T14:46:45;5.32;;;2.20;;
63218;SDS011;49320;52.512;13.448;2023-01-01T14:49:15;6.97;;;2.53;;
63218;SDS011;49320;52.512;13.448;2023-01-01T14:51:52;7.18;;;2.45;;
63218;SDS011;49320;52.512;13.448;2023-01-01T14:54:28;4.97;;;3.00;;
63218;SDS011;49320;52.512;13.448;2023-01-01T14:57:01;6.30;;;2.30;;
63218;SDS011;49320;52.512;13.448;2023-01-01T14:59:29;4.78;;;2.40;;
63218;SDS011;49320;52.512;13.448;2023-01-01T15:01:59;5.30;;;3.22;;
63218;SDS011;49320;52.512;13.448;2023-01-01T15:04:41;6.03;;;3.38;;
63218;SDS011;49320;52.512;13.448;2023-01-01T15:07:17;4.80;;;3.22;;
63218;SDS011;49320;52.512;13.448;2023-01-01T15:09:48;7.50;;;2.97;;
63218;SDS011;49320;52.512;13.448;2023-01-01T15:12:20;4.80;;;3.05;;
63218;SDS011;49320;52.512;13.448;2023-01-01T15:14:49;4.32;;;2.85;;
63218;SDS011;49320;52.512;13.448;2023-01-01T15:17:21;5.95;;;2.67;;
63218;SDS011;49320;52.512;13.448;2023-01-01T15:22:50;6.43;;;2.95;;
63218;SDS011;49320;52.512;13.448;2023-01-01T15:25:19;6.35;;;3.15;;
63218;SDS011;49320;52.512;13.448;2023-01-01T15:27:47;4.18;;;2.90;;
63218;SDS011;49320;52.512;13.448;2023-01-01T15:30:21;6.60;;;3.80;;
63218;SDS011;49320;52.512;13.448;2023-01-01T15:32:49;6.25;;;3.58;;
63218;SDS011;49320;52.512;13.448;2023-01-01T15:35:20;4.15;;;2.63;;
63218;SDS011;49320;52.512;13.448;2023-01-01T15:38:10;5.70;;;2.90;;
63218;SDS011;49320;52.512;13.448;2023-01-01T15:40:49;5.35;;;3.00;;
63218;SDS011;49320;52.512;13.448;2023-01-01T15:43:22;6.25;;;3.53;;
63218;SDS011;49320;52.512;13.448;2023-01-01T15:48:48;5.18;;;3.28;;
63218;SDS011;49320;52.512;13.448;2023-01-01T15:51:18;6.90;;;3.83;;
63218;SDS011;49320;52.512;13.448;2023-01-01T15:56:31;6.35;;;4.10;;
63218;SDS011;49320;52.512;13.448;2023-01-01T15:59:14;7.60;;;4.40;;
63218;SDS011;49320;52.512;13.448;2023-01-01T16:02:04;8.65;;;4.38;;
63218;SDS011;49320;52.512;13.448;2023-01-01T16:04:55;6.10;;;4.50;;
63218;SDS011;49320;52.512;13.448;2023-01-01T16:07:23;6.78;;;4.55;;
63218;SDS011;49320;52.512;13.448;2023-01-01T16:09:52;8.30;;;3.47;;
63218;SDS011;49320;52.512;13.448;2023-01-01T16:12:23;6.90;;;5.00;;
63218;SDS011;49320;52.512;13.448;2023-01-01T16:14:50;6.80;;;5.00;;
63218;SDS011;49320;52.512;13.448;2023-01-01T16:17:18;10.27;;;4.97;;
63218;SDS011;49320;52.512;13.448;2023-01-01T16:19:46;6.57;;;4.80;;
63218;SDS011;49320;52.512;13.448;2023-01-01T16:22:14;6.53;;;4.00;;
63218;SDS011;49320;52.512;13.448;2023-01-01T16:24:43;6.90;;;4.07;;
63218;SDS011;49320;52.512;13.448;2023-01-01T16:27:10;6.47;;;3.70;;
63218;SDS011;49320;52.512;13.448;2023-01-01T16:29:37;5.00;;;3.30;;